sensor_id;sensor_type;location;lat;lon;timestamp;P1;durP1;ratioP1;P2;durP2;ratioP2
44456;SDS011;30159;49.316;8.558;2023-04-16T00:01:51;8.37;;;5.83;;
44456;SDS011;30159;49.316;8.558;2023-04-16T00:04:18;9.80;;;6.87;;
44456;SDS011;30159;49.316;8.558;2023-04-16T00:06:44;10.30;;;6.90;;
44456;SDS011;30159;49.316;8.558;2023-04-16T00:09:11;8.90;;;6.87;;
44456;SDS011;30159;49.316;8.558;2023-04-16T00:11:39;12.87;;;7.27;;
44456;SDS011;30159;49.316;8.558;2023-04-16T00:14:05;8.63;;;6.97;;
44456;SDS011;30159;49.316;8.558;2023-04-16T00:16:32;11.20;;;7.27;;
44456;SDS011;30159;49.316;8.558;2023-04-16T00:18:58;8.50;;;5.40;;
44456;SDS011;30159;49.316;8.558;2023-04-16T00:21:31;9.93;;;7.60;;
44456;SDS011;30159;49.316;8.558;2023-04-16T00:23:58;10.00;;;7.97;;
44456;SDS011;30159;49.316;8.558;2023-04-16T00:26:24;14.57;;;8.40;;
44456;SDS011;30159;49.316;8.558;2023-04-16T00:28:52;8.30;;;7.07;;
44456;SDS011;30159;49.316;8.558;2023-04-16T00:31:24;10.10;;;6.40;;
44456;SDS011;30159;49.316;8.558;2023-04-16T00:33:52;9.50;;;4.93;;
44456;SDS011;30159;49.316;8.558;2023-04-16T00:36:18;9.37;;;6.30;;
44456;SDS011;30159;49.316;8.558;2023-04-16T00:38:45;17.90;;;9.40;;
44456;SDS011;30159;49.316;8.558;2023-04-16T00:41:11;17.10;;;8.10;;
44456;SDS011;30159;49.316;8.558;2023-04-16T00:43:38;14.23;;;7.90;;
44456;SDS011;30159;49.316;8.558;2023-04-16T00:46:06;12.73;;;6.60;;
44456;SDS011;30159;49.316;8.558;2023-04-16T00:48:33;8.97;;;6.93;;
44456;SDS011;30159;49.316;8.558;2023-04-16T00:51:01;15.43;;;7.63;;
44456;SDS011;30159;49.316;8.558;2023-04-16T00:53:29;11.87;;;7.90;;
44456;SDS011;30159;49.316;8.558;2023-04-16T00:55:56;14.87;;;8.93;;
44456;SDS011;30159;49.316;8.558;2023-04-16T00:58:22;17.00;;;8.27;;
44456;SDS011;30159;49.316;8.558;2023-04-16T01:00:50;14.60;;;9.00;;
44456;SDS011;30159;49.316;8.558;2023-04-16T01:03:18;13.30;;;8.40;;
44456;SDS011;30159;49.316;8.558;2023-04-16T01:05:45;12.97;;;8.07;;
44456;SDS011;30159;49.316;8.558;2023-04-16T01:08:15;11.20;;;7.30;;
44456;SDS011;30159;49.316;8.558;2023-04-16T01:10:42;12.53;;;7.13;;
44456;SDS011;30159;49.316;8.558;2023-04-16T01:13:09;15.83;;;9.63;;
44456;SDS011;30159;49.316;8.558;2023-04-16T01:15:35;10.63;;;7.13;;
44456;SDS011;30159;49.316;8.558;2023-04-16T01:18:02;13.90;;;8.03;;
44456;SDS011;30159;49.316;8.558;2023-04-16T01:20:39;11.90;;;8.30;;
44456;SDS011;30159;49.316;8.558;2023-04-16T01:23:05;11.33;;;6.60;;
44456;SDS011;30159;49.316;8.558;2023-04-16T01:25:32;11.23;;;8.17;;
44456;SDS011;30159;49.316;8.558;2023-04-16T01:27:58;13.27;;;7.47;;
44456;SDS011;30159;49.316;8.558;2023-04-16T01:30:25;15.13;;;8.00;;
44456;SDS011;30159;49.316;8.558;2023-04-16T01:32:51;12.30;;;8.17;;
44456;SDS011;30159;49.316;8.558;2023-04-16T01:35:18;9.80;;;5.97;;
44456;SDS011;30159;49.316;8.558;2023-04-16T01:37:46;11.37;;;7.87;;
44456;SDS011;30159;49.316;8.558;2023-04-16T01:40:14;12.20;;;7.80;;
44456;SDS011;30159;49.316;8.558;2023-04-16T01:42:41;14.47;;;7.60;;
44456;SDS011;30159;49.316;8.558;2023-04-16T01:45:07;12.97;;;7.70;;
44456;SDS011;30159;49.316;8.558;2023-04-16T01:47:35;14.83;;;7.87;;
44456;SDS011;30159;49.316;8.558;2023-04-16T01:50:01;15.40;;;7.40;;
44456;SDS011;30159;49.316;8.558;2023-04-16T01:52:29;12.47;;;7.37;;
44456;SDS011;30159;49.316;8.558;2023-04-16T01:54:57;13.60;;;7.87;;
44456;SDS011;30159;49.316;8.558;2023-04-16T01:57:23;12.30;;;7.60;;
44456;SDS011;30159;49.316;8.558;2023-04-16T01:59:50;13.20;;;8.30;;
44456;SDS011;30159;49.316;8.558;2023-04-16T02:02:16;15.30;;;8.33;;
44456;SDS011;30159;49.316;8.558;2023-04-16T02:04:43;14.00;;;8.40;;
44456;SDS011;30159;49.316;8.558;2023-04-16T02:07:11;13.40;;;6.87;;
44456;SDS011;30159;49.316;8.558;2023-04-16T02:09:38;15.47;;;8.80;;
44456;SDS011;30159;49.316;8.558;2023-04-16T02:12:07;13.70;;;7.77;;
44456;SDS011;30159;49.316;8.558;2023-04-16T02:14:35;14.07;;;8.03;;
44456;SDS011;30159;49.316;8.558;2023-04-16T02:17:01;14.87;;;8.20;;
44456;SDS011;30159;49.316;8.558;2023-04-16T02:19:28;12.00;;;7.30;;
44456;SDS011;30159;49.316;8.558;2023-04-16T02:21:55;16.17;;;10.20;;
44456;SDS011;30159;49.316;8.558;2023-04-16T02:24:21;14.93;;;9.10;;
44456;SDS011;30159;49.316;8.558;2023-04-16T02:26:48;14.23;;;9.10;;
44456;SDS011;30159;49.316;8.558;2023-04-16T02:29:15;12.77;;;7.60;;
44456;SDS011;30159;49.316;8.558;2023-04-16T02:31:42;17.70;;;8.90;;
44456;SDS011;30159;49.316;8.558;2023-04-16T02:34:08;15.53;;;8.23;;
44456;SDS011;30159;49.316;8.558;2023-04-16T02:36:35;15.97;;;10.90;;
44456;SDS011;30159;49.316;8.558;2023-04-16T02:39:02;16.90;;;8.90;;
44456;SDS011;30159;49.316;8.558;2023-04-16T02:41:28;16.33;;;9.80;;
44456;SDS011;30159;49.316;8.558;2023-04-16T02:43:55;11.90;;;7.00;;
44456;SDS011;30159;49.316;8.558;2023-04-16T02:46:23;17.40;;;9.07;;
44456;SDS011;30159;49.316;8.558;2023-04-16T02:48:49;11.63;;;7.63;;
44456;SDS011;30159;49.316;8.558;2023-04-16T02:51:16;11.30;;;7.00;;
44456;SDS011;30159;49.316;8.558;2023-04-16T02:53:42;15.37;;;8.43;;
44456;SDS011;30159;49.316;8.558;2023-04-16T02:56:10;15.60;;;8.97;;
44456;SDS011;30159;49.316;8.558;2023-04-16T02:58:37;14.27;;;8.07;;
44456;SDS011;30159;49.316;8.558;2023-04-16T03:01:03;13.77;;;8.73;;
44456;SDS011;30159;49.316;8.558;2023-04-16T03:03:31;14.37;;;7.60;;
44456;SDS011;30159;49.316;8.558;2023-04-16T03:05:58;16.30;;;9.77;;
44456;SDS011;30159;49.316;8.558;2023-04-16T03:08:24;12.83;;;7.87;;
44456;SDS011;30159;49.316;8.558;2023-04-16T03:10:51;18.97;;;10.33;;
44456;SDS011;30159;49.316;8.558;2023-04-16T03:13:18;15.30;;;10.07;;
44456;SDS011;30159;49.316;8.558;2023-04-16T03:15:46;12.30;;;9.60;;
44456;SDS011;30159;49.316;8.558;2023-04-16T03:18:13;17.03;;;8.10;;
44456;SDS011;30159;49.316;8.558;2023-04-16T03:20:41;19.17;;;9.90;;
44456;SDS011;30159;49.316;8.558;2023-04-16T03:23:08;19.03;;;9.00;;
44456;SDS011;30159;49.316;8.558;2023-04-16T03:25:34;16.00;;;8.73;;
44456;SDS011;30159;49.316;8.558;2023-04-16T03:28:04;15.93;;;7.30;;
44456;SDS011;30159;49.316;8.558;2023-04-16T03:30:31;16.07;;;8.50;;
44456;SDS011;30159;49.316;8.558;2023-04-16T03:32:57;16.00;;;8.60;;
44456;SDS011;30159;49.316;8.558;2023-04-16T03:35:24;14.07;;;9.73;;
44456;SDS011;30159;49.316;8.558;2023-04-16T03:37:51;15.63;;;8.93;;
44456;SDS011;30159;49.316;8.558;2023-04-16T03:40:18;16.40;;;9.33;;
44456;SDS011;30159;49.316;8.558;2023-04-16T03:42:44;15.27;;;8.37;;
44456;SDS011;30159;49.316;8.558;2023-04-16T03:45:11;18.33;;;9.53;;
44456;SDS011;30159;49.316;8.558;2023-04-16T03:47:39;19.13;;;9.93;;
44456;SDS011;30159;49.316;8.558;2023-04-16T03:50:05;16.77;;;9.87;;
44456;SDS011;30159;49.316;8.558;2023-04-16T03:52:32;14.77;;;7.20;;
44456;SDS011;30159;49.316;8.558;2023-04-16T03:55:00;14.40;;;8.67;;
44456;SDS011;30159;49.316;8.558;2023-04-16T03:57:27;12.40;;;7.40;;
44456;SDS011;30159;49.316;8.558;2023-04-16T03:59:54;19.17;;;9.67;;
44456;SDS011;30159;49.316;8.558;2023-04-16T04:02:20;19.40;;;9.97;;
44456;SDS011;30159;49.316;8.558;2023-04-16T04:04:47;12.33;;;6.53;;
44456;SDS011;30159;49.316;8.558;2023-04-16T04:07:14;18.67;;;10.10;;
44456;SDS011;30159;49.316;8.558;2023-04-16T04:09:41;17.03;;;8.33;;
44456;SDS011;30159;49.316;8.558;2023-04-16T04:12:09;17.47;;;9.40;;
44456;SDS011;30159;49.316;8.558;2023-04-16T04:14:35;15.80;;;9.20;;
44456;SDS011;30159;49.316;8.558;2023-04-16T04:17:03;16.00;;;8.77;;
44456;SDS011;30159;49.316;8.558;2023-04-16T04:19:30;19.37;;;8.57;;
44456;SDS011;30159;49.316;8.558;2023-04-16T04:21:57;17.63;;;9.17;;
44456;SDS011;30159;49.316;8.558;2023-04-16T04:24:23;17.33;;;8.23;;
44456;SDS011;30159;49.316;8.558;2023-04-16T04:26:50;18.53;;;8.70;;
44456;SDS011;30159;49.316;8.558;2023-04-16T04:29:18;9.97;;;5.93;;
44456;SDS011;30159;49.316;8.558;2023-04-16T04:31:44;16.50;;;8.43;;
44456;SDS011;30159;49.316;8.558;2023-04-16T04:34:11;12.70;;;8.70;;
44456;SDS011;30159;49.316;8.558;2023-04-16T04:36:37;13.23;;;8.10;;
44456;SDS011;30159;49.316;8.558;2023-04-16T04:39:04;16.67;;;8.90;;
44456;SDS011;30159;49.316;8.558;2023-04-16T04:41:31;19.30;;;7.93;;
44456;SDS011;30159;49.316;8.558;2023-04-16T04:43:57;11.47;;;6.30;;
44456;SDS011;30159;49.316;8.558;2023-04-16T04:46:25;11.03;;;6.50;;
44456;SDS011;30159;49.316;8.558;2023-04-16T04:48:52;11.97;;;8.23;;
44456;SDS011;30159;49.316;8.558;2023-04-16T04:51:18;16.40;;;9.13;;
44456;SDS011;30159;49.316;8.558;2023-04-16T04:53:45;13.77;;;8.57;;
44456;SDS011;30159;49.316;8.558;2023-04-16T04:56:11;14.70;;;7.43;;
44456;SDS011;30159;49.316;8.558;2023-04-16T04:58:37;14.90;;;8.07;;
44456;SDS011;30159;49.316;8.558;2023-04-16T05:01:04;12.47;;;6.83;;
44456;SDS011;30159;49.316;8.558;2023-04-16T05:03:32;14.43;;;7.60;;
44456;SDS011;30159;49.316;8.558;2023-04-16T05:05:59;11.97;;;7.50;;
44456;SDS011;30159;49.316;8.558;2023-04-16T05:08:25;8.97;;;6.23;;
44456;SDS011;30159;49.316;8.558;2023-04-16T05:10:52;13.73;;;6.50;;
44456;SDS011;30159;49.316;8.558;2023-04-16T05:13:18;14.67;;;7.43;;
44456;SDS011;30159;49.316;8.558;2023-04-16T05:15:45;11.47;;;6.77;;
44456;SDS011;30159;49.316;8.558;2023-04-16T05:18:11;11.17;;;6.93;;
44456;SDS011;30159;49.316;8.558;2023-04-16T05:20:39;12.63;;;7.70;;
44456;SDS011;30159;49.316;8.558;2023-04-16T05:23:06;12.33;;;7.93;;
44456;SDS011;30159;49.316;8.558;2023-04-16T05:25:32;8.17;;;5.50;;
44456;SDS011;30159;49.316;8.558;2023-04-16T05:27:59;13.57;;;7.37;;
44456;SDS011;30159;49.316;8.558;2023-04-16T05:30:25;11.87;;;6.63;;
44456;SDS011;30159;49.316;8.558;2023-04-16T05:32:52;8.27;;;5.30;;
44456;SDS011;30159;49.316;8.558;2023-04-16T05:35:18;7.60;;;5.97;;
44456;SDS011;30159;49.316;8.558;2023-04-16T05:37:46;12.30;;;6.33;;
44456;SDS011;30159;49.316;8.558;2023-04-16T05:40:13;10.03;;;4.70;;
44456;SDS011;30159;49.316;8.558;2023-04-16T05:42:39;9.00;;;6.07;;
44456;SDS011;30159;49.316;8.558;2023-04-16T05:45:06;10.40;;;5.50;;
44456;SDS011;30159;49.316;8.558;2023-04-16T05:47:34;5.97;;;4.30;;
44456;SDS011;30159;49.316;8.558;2023-04-16T05:50:00;7.80;;;4.67;;
44456;SDS011;30159;49.316;8.558;2023-04-16T05:52:27;10.40;;;5.23;;
44456;SDS011;30159;49.316;8.558;2023-04-16T05:54:54;8.10;;;5.60;;
44456;SDS011;30159;49.316;8.558;2023-04-16T05:57:22;10.37;;;5.20;;
44456;SDS011;30159;49.316;8.558;2023-04-16T05:59:48;8.67;;;5.80;;
44456;SDS011;30159;49.316;8.558;2023-04-16T06:02:15;10.87;;;6.07;;
44456;SDS011;30159;49.316;8.558;2023-04-16T06:04:41;9.53;;;6.47;;
44456;SDS011;30159;49.316;8.558;2023-04-16T06:07:08;9.87;;;6.00;;
44456;SDS011;30159;49.316;8.558;2023-04-16T06:09:35;8.50;;;5.20;;
44456;SDS011;30159;49.316;8.558;2023-04-16T06:12:03;6.57;;;4.70;;
44456;SDS011;30159;49.316;8.558;2023-04-16T06:14:30;8.27;;;6.00;;
44456;SDS011;30159;49.316;8.558;2023-04-16T06:16:56;8.73;;;5.80;;
44456;SDS011;30159;49.316;8.558;2023-04-16T06:19:23;7.90;;;5.30;;
44456;SDS011;30159;49.316;8.558;2023-04-16T06:21:49;12.67;;;6.27;;
44456;SDS011;30159;49.316;8.558;2023-04-16T06:24:18;10.10;;;5.20;;
44456;SDS011;30159;49.316;8.558;2023-04-16T06:26:44;11.03;;;6.57;;
44456;SDS011;30159;49.316;8.558;2023-04-16T06:29:12;9.90;;;5.73;;
44456;SDS011;30159;49.316;8.558;2023-04-16T06:31:39;10.00;;;5.60;;
44456;SDS011;30159;49.316;8.558;2023-04-16T06:34:06;9.63;;;6.57;;
44456;SDS011;30159;49.316;8.558;2023-04-16T06:36:33;12.30;;;6.03;;
44456;SDS011;30159;49.316;8.558;2023-04-16T06:39:01;7.90;;;4.93;;
44456;SDS011;30159;49.316;8.558;2023-04-16T06:41:28;11.03;;;5.73;;
44456;SDS011;30159;49.316;8.558;2023-04-16T06:43:55;8.03;;;5.00;;
44456;SDS011;30159;49.316;8.558;2023-04-16T06:46:23;9.63;;;5.77;;
44456;SDS011;30159;49.316;8.558;2023-04-16T06:48:49;9.57;;;4.80;;
44456;SDS011;30159;49.316;8.558;2023-04-16T06:51:16;10.73;;;5.20;;
44456;SDS011;30159;49.316;8.558;2023-04-16T06:53:42;9.40;;;5.60;;
44456;SDS011;30159;49.316;8.558;2023-04-16T06:56:09;11.27;;;5.13;;
44456;SDS011;30159;49.316;8.558;2023-04-16T06:58:35;8.83;;;4.80;;
44456;SDS011;30159;49.316;8.558;2023-04-16T07:01:02;7.77;;;5.67;;
44456;SDS011;30159;49.316;8.558;2023-04-16T07:03:30;11.60;;;6.10;;
44456;SDS011;30159;49.316;8.558;2023-04-16T07:05:57;11.33;;;6.63;;
44456;SDS011;30159;49.316;8.558;2023-04-16T07:08:24;11.83;;;5.67;;
44456;SDS011;30159;49.316;8.558;2023-04-16T07:10:50;6.97;;;5.47;;
44456;SDS011;30159;49.316;8.558;2023-04-16T07:13:17;10.07;;;6.37;;
44456;SDS011;30159;49.316;8.558;2023-04-16T07:15:44;10.03;;;6.23;;
44456;SDS011;30159;49.316;8.558;2023-04-16T07:18:11;9.47;;;5.47;;
44456;SDS011;30159;49.316;8.558;2023-04-16T07:20:38;8.70;;;6.43;;
44456;SDS011;30159;49.316;8.558;2023-04-16T07:23:05;8.63;;;5.37;;
44456;SDS011;30159;49.316;8.558;2023-04-16T07:25:31;8.63;;;5.77;;
44456;SDS011;30159;49.316;8.558;2023-04-16T07:27:58;11.43;;;6.10;;
44456;SDS011;30159;49.316;8.558;2023-04-16T07:30:24;14.17;;;6.30;;
44456;SDS011;30159;49.316;8.558;2023-04-16T07:32:56;11.03;;;6.57;;
44456;SDS011;30159;49.316;8.558;2023-04-16T07:35:23;12.90;;;7.10;;
44456;SDS011;30159;49.316;8.558;2023-04-16T07:37:51;10.97;;;6.43;;
44456;SDS011;30159;49.316;8.558;2023-04-16T07:40:17;6.70;;;4.93;;
44456;SDS011;30159;49.316;8.558;2023-04-16T07:42:44;10.30;;;6.73;;
44456;SDS011;30159;49.316;8.558;2023-04-16T07:45:10;11.17;;;6.30;;
44456;SDS011;30159;49.316;8.558;2023-04-16T07:47:37;10.63;;;6.30;;
44456;SDS011;30159;49.316;8.558;2023-04-16T07:50:04;11.23;;;6.37;;
44456;SDS011;30159;49.316;8.558;2023-04-16T07:52:31;9.90;;;6.33;;
44456;SDS011;30159;49.316;8.558;2023-04-16T07:54:59;9.37;;;5.73;;
44456;SDS011;30159;49.316;8.558;2023-04-16T07:57:26;13.33;;;6.93;;
44456;SDS011;30159;49.316;8.558;2023-04-16T07:59:52;10.70;;;5.90;;
44456;SDS011;30159;49.316;8.558;2023-04-16T08:02:19;11.97;;;6.30;;
44456;SDS011;30159;49.316;8.558;2023-04-16T08:04:45;11.10;;;6.37;;
44456;SDS011;30159;49.316;8.558;2023-04-16T08:07:12;11.27;;;6.40;;
44456;SDS011;30159;49.316;8.558;2023-04-16T08:09:45;11.70;;;6.63;;
44456;SDS011;30159;49.316;8.558;2023-04-16T08:12:14;15.87;;;6.63;;
44456;SDS011;30159;49.316;8.558;2023-04-16T08:14:41;15.10;;;5.67;;
44456;SDS011;30159;49.316;8.558;2023-04-16T08:17:09;14.13;;;6.80;;
44456;SDS011;30159;49.316;8.558;2023-04-16T08:19:35;13.27;;;6.90;;
44456;SDS011;30159;49.316;8.558;2023-04-16T08:22:02;10.53;;;7.70;;
44456;SDS011;30159;49.316;8.558;2023-04-16T08:24:28;8.03;;;6.13;;
44456;SDS011;30159;49.316;8.558;2023-04-16T08:26:55;8.67;;;5.27;;
44456;SDS011;30159;49.316;8.558;2023-04-16T08:29:24;10.27;;;6.53;;
44456;SDS011;30159;49.316;8.558;2023-04-16T08:31:50;10.70;;;7.27;;
44456;SDS011;30159;49.316;8.558;2023-04-16T08:34:18;11.00;;;6.13;;
44456;SDS011;30159;49.316;8.558;2023-04-16T08:36:44;9.70;;;6.10;;
44456;SDS011;30159;49.316;8.558;2023-04-16T08:39:11;7.73;;;4.67;;
44456;SDS011;30159;49.316;8.558;2023-04-16T08:41:39;11.00;;;6.63;;
44456;SDS011;30159;49.316;8.558;2023-04-16T08:44:08;12.50;;;4.60;;
44456;SDS011;30159;49.316;8.558;2023-04-16T08:46:41;9.17;;;5.57;;
44456;SDS011;30159;49.316;8.558;2023-04-16T08:49:10;11.37;;;5.77;;
44456;SDS011;30159;49.316;8.558;2023-04-16T08:51:42;10.03;;;6.60;;
44456;SDS011;30159;49.316;8.558;2023-04-16T08:54:14;8.53;;;5.33;;
44456;SDS011;30159;49.316;8.558;2023-04-16T08:56:50;6.40;;;5.30;;
44456;SDS011;30159;49.316;8.558;2023-04-16T08:59:17;10.33;;;6.13;;
44456;SDS011;30159;49.316;8.558;2023-04-16T09:01:45;8.30;;;5.70;;
44456;SDS011;30159;49.316;8.558;2023-04-16T09:04:13;10.20;;;5.77;;
44456;SDS011;30159;49.316;8.558;2023-04-16T09:06:41;11.50;;;6.10;;
44456;SDS011;30159;49.316;8.558;2023-04-16T09:09:08;8.37;;;5.20;;
44456;SDS011;30159;49.316;8.558;2023-04-16T09:11:36;8.60;;;5.10;;
44456;SDS011;30159;49.316;8.558;2023-04-16T09:14:04;11.77;;;6.27;;
44456;SDS011;30159;49.316;8.558;2023-04-16T09:16:35;9.60;;;5.10;;
44456;SDS011;30159;49.316;8.558;2023-04-16T09:19:03;8.97;;;5.47;;
44456;SDS011;30159;49.316;8.558;2023-04-16T09:21:30;7.97;;;5.80;;
44456;SDS011;30159;49.316;8.558;2023-04-16T09:23:57;11.10;;;5.90;;
44456;SDS011;30159;49.316;8.558;2023-04-16T09:26:25;11.60;;;6.40;;
44456;SDS011;30159;49.316;8.558;2023-04-16T09:28:52;7.17;;;5.10;;
44456;SDS011;30159;49.316;8.558;2023-04-16T09:31:20;7.93;;;5.67;;
44456;SDS011;30159;49.316;8.558;2023-04-16T09:33:59;8.87;;;5.93;;
44456;SDS011;30159;49.316;8.558;2023-04-16T09:36:28;12.03;;;6.47;;
44456;SDS011;30159;49.316;8.558;2023-04-16T09:38:56;7.77;;;4.60;;
44456;SDS011;30159;49.316;8.558;2023-04-16T09:41:24;9.17;;;5.93;;
44456;SDS011;30159;49.316;8.558;2023-04-16T09:43:52;4.37;;;3.97;;
44456;SDS011;30159;49.316;8.558;2023-04-16T09:46:23;10.53;;;5.93;;
44456;SDS011;30159;49.316;8.558;2023-04-16T09:48:54;6.90;;;4.90;;
44456;SDS011;30159;49.316;8.558;2023-04-16T09:51:21;4.33;;;3.53;;
44456;SDS011;30159;49.316;8.558;2023-04-16T09:53:51;6.10;;;4.90;;
44456;SDS011;30159;49.316;8.558;2023-04-16T09:56:18;6.53;;;4.47;;
44456;SDS011;30159;49.316;8.558;2023-04-16T09:58:48;8.60;;;5.33;;
44456;SDS011;30159;49.316;8.558;2023-04-16T10:01:16;7.63;;;4.70;;
44456;SDS011;30159;49.316;8.558;2023-04-16T10:03:43;9.90;;;5.60;;
44456;SDS011;30159;49.316;8.558;2023-04-16T10:06:15;8.10;;;5.50;;
44456;SDS011;30159;49.316;8.558;2023-04-16T10:08:43;9.57;;;5.63;;
44456;SDS011;30159;49.316;8.558;2023-04-16T10:11:13;11.73;;;7.17;;
44456;SDS011;30159;49.316;8.558;2023-04-16T10:13:40;11.60;;;6.73;;
44456;SDS011;30159;49.316;8.558;2023-04-16T10:16:07;10.00;;;5.80;;
44456;SDS011;30159;49.316;8.558;2023-04-16T10:18:34;10.17;;;7.00;;
44456;SDS011;30159;49.316;8.558;2023-04-16T10:21:02;8.83;;;6.73;;
44456;SDS011;30159;49.316;8.558;2023-04-16T10:23:29;13.03;;;7.60;;
44456;SDS011;30159;49.316;8.558;2023-04-16T10:25:57;10.90;;;6.70;;
44456;SDS011;30159;49.316;8.558;2023-04-16T10:28:25;11.73;;;6.93;;
44456;SDS011;30159;49.316;8.558;2023-04-16T10:30:53;7.70;;;6.00;;
44456;SDS011;30159;49.316;8.558;2023-04-16T10:33:23;13.97;;;7.80;;
44456;SDS011;30159;49.316;8.558;2023-04-16T10:35:52;17.70;;;9.70;;
44456;SDS011;30159;49.316;8.558;2023-04-16T10:38:32;15.10;;;7.80;;
44456;SDS011;30159;49.316;8.558;2023-04-16T10:41:00;13.27;;;7.57;;
44456;SDS011;30159;49.316;8.558;2023-04-16T10:43:29;16.87;;;8.07;;
44456;SDS011;30159;49.316;8.558;2023-04-16T10:45:56;13.90;;;8.07;;
44456;SDS011;30159;49.316;8.558;2023-04-16T10:48:23;12.47;;;6.63;;
44456;SDS011;30159;49.316;8.558;2023-04-16T10:50:53;9.83;;;6.10;;
44456;SDS011;30159;49.316;8.558;2023-04-16T10:53:22;12.27;;;7.27;;
44456;SDS011;30159;49.316;8.558;2023-04-16T10:55:57;12.00;;;6.37;;
44456;SDS011;30159;49.316;8.558;2023-04-16T10:58:29;12.87;;;7.80;;
44456;SDS011;30159;49.316;8.558;2023-04-16T11:00:58;16.80;;;8.20;;
44456;SDS011;30159;49.316;8.558;2023-04-16T11:03:28;10.77;;;7.00;;
44456;SDS011;30159;49.316;8.558;2023-04-16T11:06:08;15.90;;;6.87;;
44456;SDS011;30159;49.316;8.558;2023-04-16T11:08:36;10.80;;;6.80;;
44456;SDS011;30159;49.316;8.558;2023-04-16T11:11:04;15.13;;;8.77;;
44456;SDS011;30159;49.316;8.558;2023-04-16T11:13:32;12.10;;;7.20;;
44456;SDS011;30159;49.316;8.558;2023-04-16T11:16:01;12.07;;;7.67;;
44456;SDS011;30159;49.316;8.558;2023-04-16T11:18:28;12.40;;;7.47;;
44456;SDS011;30159;49.316;8.558;2023-04-16T11:20:54;16.10;;;8.30;;
44456;SDS011;30159;49.316;8.558;2023-04-16T11:23:21;13.93;;;7.57;;
44456;SDS011;30159;49.316;8.558;2023-04-16T11:25:47;9.93;;;6.10;;
44456;SDS011;30159;49.316;8.558;2023-04-16T11:28:15;12.33;;;7.13;;
44456;SDS011;30159;49.316;8.558;2023-04-16T11:30:43;12.83;;;8.37;;
44456;SDS011;30159;49.316;8.558;2023-04-16T11:33:10;16.53;;;8.87;;
44456;SDS011;30159;49.316;8.558;2023-04-16T11:35:37;14.07;;;8.03;;
44456;SDS011;30159;49.316;8.558;2023-04-16T11:38:04;12.60;;;7.43;;
44456;SDS011;30159;49.316;8.558;2023-04-16T11:40:31;15.27;;;7.37;;
44456;SDS011;30159;49.316;8.558;2023-04-16T11:43:00;10.93;;;7.20;;
44456;SDS011;30159;49.316;8.558;2023-04-16T11:45:27;13.70;;;7.77;;
44456;SDS011;30159;49.316;8.558;2023-04-16T11:47:55;13.33;;;7.77;;
44456;SDS011;30159;49.316;8.558;2023-04-16T11:50:22;12.20;;;7.77;;
44456;SDS011;30159;49.316;8.558;2023-04-16T11:52:50;14.63;;;8.80;;
44456;SDS011;30159;49.316;8.558;2023-04-16T11:55:17;12.97;;;8.60;;
44456;SDS011;30159;49.316;8.558;2023-04-16T11:57:45;14.93;;;9.13;;
44456;SDS011;30159;49.316;8.558;2023-04-16T12:00:12;16.87;;;7.83;;
44456;SDS011;30159;49.316;8.558;2023-04-16T12:02:39;18.73;;;9.23;;
44456;SDS011;30159;49.316;8.558;2023-04-16T12:07:54;14.87;;;8.53;;
44456;SDS011;30159;49.316;8.558;2023-04-16T12:10:21;15.17;;;8.80;;
44456;SDS011;30159;49.316;8.558;2023-04-16T12:12:48;17.90;;;9.30;;
44456;SDS011;30159;49.316;8.558;2023-04-16T12:15:14;16.30;;;9.17;;
44456;SDS011;30159;49.316;8.558;2023-04-16T12:17:41;15.07;;;8.83;;
44456;SDS011;30159;49.316;8.558;2023-04-16T12:20:08;19.37;;;9.63;;
44456;SDS011;30159;49.316;8.558;2023-04-16T12:22:37;14.43;;;10.00;;
44456;SDS011;30159;49.316;8.558;2023-04-16T12:25:04;20.60;;;9.60;;
44456;SDS011;30159;49.316;8.558;2023-04-16T12:27:42;15.50;;;9.37;;
44456;SDS011;30159;49.316;8.558;2023-04-16T12:30:15;14.43;;;9.27;;
44456;SDS011;30159;49.316;8.558;2023-04-16T12:32:42;18.27;;;9.30;;
44456;SDS011;30159;49.316;8.558;2023-04-16T12:35:11;17.20;;;10.50;;
44456;SDS011;30159;49.316;8.558;2023-04-16T12:37:39;16.90;;;9.07;;
44456;SDS011;30159;49.316;8.558;2023-04-16T12:40:06;16.60;;;9.83;;
44456;SDS011;30159;49.316;8.558;2023-04-16T12:42:33;15.90;;;9.77;;
44456;SDS011;30159;49.316;8.558;2023-04-16T12:45:01;17.90;;;10.53;;
44456;SDS011;30159;49.316;8.558;2023-04-16T12:47:29;17.60;;;9.17;;
44456;SDS011;30159;49.316;8.558;2023-04-16T12:49:55;14.13;;;8.60;;
44456;SDS011;30159;49.316;8.558;2023-04-16T12:52:22;17.53;;;10.37;;
44456;SDS011;30159;49.316;8.558;2023-04-16T12:54:50;16.93;;;8.90;;
44456;SDS011;30159;49.316;8.558;2023-04-16T12:57:17;14.73;;;9.53;;
44456;SDS011;30159;49.316;8.558;2023-04-16T12:59:44;14.80;;;9.87;;
44456;SDS011;30159;49.316;8.558;2023-04-16T13:02:11;15.93;;;9.53;;
44456;SDS011;30159;49.316;8.558;2023-04-16T13:04:37;19.00;;;10.97;;
44456;SDS011;30159;49.316;8.558;2023-04-16T13:07:04;17.13;;;10.60;;
44456;SDS011;30159;49.316;8.558;2023-04-16T13:09:31;16.30;;;10.00;;
44456;SDS011;30159;49.316;8.558;2023-04-16T13:11:58;14.57;;;8.97;;
44456;SDS011;30159;49.316;8.558;2023-04-16T13:14:25;17.00;;;9.90;;
44456;SDS011;30159;49.316;8.558;2023-04-16T13:16:52;17.00;;;9.87;;
44456;SDS011;30159;49.316;8.558;2023-04-16T13:19:18;14.33;;;9.57;;
44456;SDS011;30159;49.316;8.558;2023-04-16T13:21:45;19.60;;;9.80;;
44456;SDS011;30159;49.316;8.558;2023-04-16T13:24:12;17.03;;;10.87;;
44456;SDS011;30159;49.316;8.558;2023-04-16T13:26:38;18.17;;;10.10;;
44456;SDS011;30159;49.316;8.558;2023-04-16T13:29:06;19.17;;;11.03;;
44456;SDS011;30159;49.316;8.558;2023-04-16T13:31:33;22.90;;;11.70;;
44456;SDS011;30159;49.316;8.558;2023-04-16T13:33:59;16.33;;;10.90;;
44456;SDS011;30159;49.316;8.558;2023-04-16T13:36:27;15.27;;;9.07;;
44456;SDS011;30159;49.316;8.558;2023-04-16T13:38:55;15.63;;;9.67;;
44456;SDS011;30159;49.316;8.558;2023-04-16T13:41:21;18.20;;;11.60;;
44456;SDS011;30159;49.316;8.558;2023-04-16T13:43:48;16.00;;;11.37;;
44456;SDS011;30159;49.316;8.558;2023-04-16T13:46:16;19.50;;;10.97;;
44456;SDS011;30159;49.316;8.558;2023-04-16T13:48:43;18.60;;;11.17;;
44456;SDS011;30159;49.316;8.558;2023-04-16T13:51:10;22.27;;;11.30;;
44456;SDS011;30159;49.316;8.558;2023-04-16T13:53:36;16.57;;;10.80;;
44456;SDS011;30159;49.316;8.558;2023-04-16T13:56:03;16.53;;;11.07;;
44456;SDS011;30159;49.316;8.558;2023-04-16T13:58:31;19.70;;;11.67;;
44456;SDS011;30159;49.316;8.558;2023-04-16T14:00:57;17.97;;;11.57;;
44456;SDS011;30159;49.316;8.558;2023-04-16T14:03:25;23.07;;;12.50;;
44456;SDS011;30159;49.316;8.558;2023-04-16T14:05:52;17.30;;;11.03;;
44456;SDS011;30159;49.316;8.558;2023-04-16T14:08:19;19.73;;;10.93;;
44456;SDS011;30159;49.316;8.558;2023-04-16T14:10:46;20.73;;;11.70;;
44456;SDS011;30159;49.316;8.558;2023-04-16T14:13:13;21.03;;;11.00;;
44456;SDS011;30159;49.316;8.558;2023-04-16T14:15:40;21.40;;;10.83;;
44456;SDS011;30159;49.316;8.558;2023-04-16T14:18:06;26.00;;;12.90;;
44456;SDS011;30159;49.316;8.558;2023-04-16T14:20:34;25.50;;;12.27;;
44456;SDS011;30159;49.316;8.558;2023-04-16T14:23:03;20.97;;;12.00;;
44456;SDS011;30159;49.316;8.558;2023-04-16T14:25:30;19.40;;;11.50;;
44456;SDS011;30159;49.316;8.558;2023-04-16T14:27:57;21.47;;;13.77;;
44456;SDS011;30159;49.316;8.558;2023-04-16T14:30:24;20.57;;;13.47;;
44456;SDS011;30159;49.316;8.558;2023-04-16T14:32:50;20.67;;;12.23;;
44456;SDS011;30159;49.316;8.558;2023-04-16T14:35:17;26.10;;;12.80;;
44456;SDS011;30159;49.316;8.558;2023-04-16T14:37:45;18.87;;;12.43;;
44456;SDS011;30159;49.316;8.558;2023-04-16T14:40:12;29.97;;;16.03;;